sensor_id;sensor_type;location;lat;lon;timestamp;temperature;humidity
9118;DHT22;4594;50.994;7.126;2024-01-27T00:00:08;6.80;58.40
9118;DHT22;4594;50.994;7.126;2024-01-27T00:02:36;6.70;58.30
9118;DHT22;4594;50.994;7.126;2024-01-27T00:05:02;6.70;58.30
9118;DHT22;4594;50.994;7.126;2024-01-27T00:07:28;6.70;58.30
9118;DHT22;4594;50.994;7.126;2024-01-27T00:09:55;6.70;58.10
9118;DHT22;4594;50.994;7.126;2024-01-27T00:12:21;6.70;57.90
9118;DHT22;4594;50.994;7.126;2024-01-27T00:14:47;6.90;57.90
9118;DHT22;4594;50.994;7.126;2024-01-27T00:17:12;6.70;57.50
9118;DHT22;4594;50.994;7.126;2024-01-27T00:19:38;6.70;57.10
9118;DHT22;4594;50.994;7.126;2024-01-27T00:22:04;6.70;56.80
9118;DHT22;4594;50.994;7.126;2024-01-27T00:24:30;6.60;56.50
9118;DHT22;4594;50.994;7.126;2024-01-27T00:26:56;6.60;56.30
9118;DHT22;4594;50.994;7.126;2024-01-27T00:29:22;6.50;56.00
9118;DHT22;4594;50.994;7.126;2024-01-27T00:31:47;6.50;55.90
9118;DHT22;4594;50.994;7.126;2024-01-27T00:34:14;6.40;55.60
9118;DHT22;4594;50.994;7.126;2024-01-27T00:36:40;6.30;55.40
9118;DHT22;4594;50.994;7.126;2024-01-27T00:39:07;6.30;55.20
9118;DHT22;4594;50.994;7.126;2024-01-27T00:41:33;6.20;55.00
9118;DHT22;4594;50.994;7.126;2024-01-27T00:43:59;6.10;54.90
9118;DHT22;4594;50.994;7.126;2024-01-27T00:46:25;6.00;54.60
9118;DHT22;4594;50.994;7.126;2024-01-27T00:48:50;6.10;54.60
9118;DHT22;4594;50.994;7.126;2024-01-27T00:51:16;5.90;54.50
9118;DHT22;4594;50.994;7.126;2024-01-27T00:53:42;5.90;54.50
9118;DHT22;4594;50.994;7.126;2024-01-27T00:56:08;5.80;54.40
9118;DHT22;4594;50.994;7.126;2024-01-27T00:58:33;5.70;54.70
9118;DHT22;4594;50.994;7.126;2024-01-27T01:00:59;5.60;54.40
9118;DHT22;4594;50.994;7.126;2024-01-27T01:03:26;5.70;54.50
9118;DHT22;4594;50.994;7.126;2024-01-27T01:05:52;5.50;54.40
9118;DHT22;4594;50.994;7.126;2024-01-27T01:08:18;5.40;54.40
9118;DHT22;4594;50.994;7.126;2024-01-27T01:10:44;5.40;54.40
9118;DHT22;4594;50.994;7.126;2024-01-27T01:13:10;5.30;54.40
9118;DHT22;4594;50.994;7.126;2024-01-27T01:15:36;5.20;54.40
9118;DHT22;4594;50.994;7.126;2024-01-27T01:18:02;5.20;54.40
9118;DHT22;4594;50.994;7.126;2024-01-27T01:20:29;5.10;54.40
9118;DHT22;4594;50.994;7.126;2024-01-27T01:22:55;5.10;54.40
9118;DHT22;4594;50.994;7.126;2024-01-27T01:25:28;5.00;54.30
9118;DHT22;4594;50.994;7.126;2024-01-27T01:27:53;4.90;54.40
9118;DHT22;4594;50.994;7.126;2024-01-27T01:30:19;4.90;54.40
9118;DHT22;4594;50.994;7.126;2024-01-27T01:32:45;4.80;54.40
9118;DHT22;4594;50.994;7.126;2024-01-27T01:35:11;4.80;54.60
9118;DHT22;4594;50.994;7.126;2024-01-27T01:37:36;4.70;54.60
9118;DHT22;4594;50.994;7.126;2024-01-27T01:40:02;4.70;54.60
9118;DHT22;4594;50.994;7.126;2024-01-27T01:42:29;4.60;54.50
9118;DHT22;4594;50.994;7.126;2024-01-27T01:44:55;4.60;54.50
9118;DHT22;4594;50.994;7.126;2024-01-27T01:47:21;4.50;54.50
9118;DHT22;4594;50.994;7.126;2024-01-27T01:49:48;4.50;54.60
9118;DHT22;4594;50.994;7.126;2024-01-27T01:52:14;4.40;54.60
9118;DHT22;4594;50.994;7.126;2024-01-27T01:54:49;4.40;54.70
9118;DHT22;4594;50.994;7.126;2024-01-27T01:57:16;4.30;54.40
9118;DHT22;4594;50.994;7.126;2024-01-27T01:59:42;4.30;54.70
9118;DHT22;4594;50.994;7.126;2024-01-27T02:02:12;4.30;54.70
9118;DHT22;4594;50.994;7.126;2024-01-27T02:07:06;4.20;54.70
9118;DHT22;4594;50.994;7.126;2024-01-27T02:09:32;4.10;54.90
9118;DHT22;4594;50.994;7.126;2024-01-27T02:11:58;4.10;54.90
9118;DHT22;4594;50.994;7.126;2024-01-27T02:14:23;4.10;54.90
9118;DHT22;4594;50.994;7.126;2024-01-27T02:16:51;4.00;54.90
9118;DHT22;4594;50.994;7.126;2024-01-27T02:19:17;4.00;54.90
9118;DHT22;4594;50.994;7.126;2024-01-27T02:21:43;3.90;54.80
9118;DHT22;4594;50.994;7.126;2024-01-27T02:24:08;3.90;54.90
9118;DHT22;4594;50.994;7.126;2024-01-27T02:26:35;3.90;55.00
9118;DHT22;4594;50.994;7.126;2024-01-27T02:29:00;3.80;55.00
9118;DHT22;4594;50.994;7.126;2024-01-27T02:31:26;3.80;55.00
9118;DHT22;4594;50.994;7.126;2024-01-27T02:33:52;3.70;54.90
9118;DHT22;4594;50.994;7.126;2024-01-27T02:36:17;3.70;55.00
9118;DHT22;4594;50.994;7.126;2024-01-27T02:38:43;3.70;55.00
9118;DHT22;4594;50.994;7.126;2024-01-27T02:41:12;3.60;54.80
9118;DHT22;4594;50.994;7.126;2024-01-27T02:43:38;3.60;54.60
9118;DHT22;4594;50.994;7.126;2024-01-27T02:46:13;3.60;55.00
9118;DHT22;4594;50.994;7.126;2024-01-27T02:48:41;3.50;54.60
9118;DHT22;4594;50.994;7.126;2024-01-27T02:51:10;3.50;55.20
9118;DHT22;4594;50.994;7.126;2024-01-27T02:53:35;3.50;55.20
9118;DHT22;4594;50.994;7.126;2024-01-27T02:56:01;3.40;55.10
9118;DHT22;4594;50.994;7.126;2024-01-27T02:58:27;3.40;55.10
9118;DHT22;4594;50.994;7.126;2024-01-27T03:00:53;3.40;55.20
9118;DHT22;4594;50.994;7.126;2024-01-27T03:03:19;3.40;55.20
9118;DHT22;4594;50.994;7.126;2024-01-27T03:05:44;3.30;55.10
9118;DHT22;4594;50.994;7.126;2024-01-27T03:08:10;3.30;55.00
9118;DHT22;4594;50.994;7.126;2024-01-27T03:10:36;3.30;55.00
9118;DHT22;4594;50.994;7.126;2024-01-27T03:13:02;3.20;55.10
9118;DHT22;4594;50.994;7.126;2024-01-27T03:15:28;3.20;55.10
9118;DHT22;4594;50.994;7.126;2024-01-27T03:17:53;3.20;55.10
9118;DHT22;4594;50.994;7.126;2024-01-27T03:20:19;3.20;55.10
9118;DHT22;4594;50.994;7.126;2024-01-27T03:22:45;3.10;55.10
9118;DHT22;4594;50.994;7.126;2024-01-27T03:25:11;3.10;55.20
9118;DHT22;4594;50.994;7.126;2024-01-27T03:27:37;3.10;55.20
9118;DHT22;4594;50.994;7.126;2024-01-27T03:30:03;3.10;55.20
9118;DHT22;4594;50.994;7.126;2024-01-27T03:32:31;3.00;55.20
9118;DHT22;4594;50.994;7.126;2024-01-27T03:35:00;3.00;55.30
9118;DHT22;4594;50.994;7.126;2024-01-27T03:37:26;3.00;55.30
9118;DHT22;4594;50.994;7.126;2024-01-27T03:39:52;3.00;55.30
9118;DHT22;4594;50.994;7.126;2024-01-27T03:42:18;3.00;55.30
9118;DHT22;4594;50.994;7.126;2024-01-27T03:44:44;2.90;55.30
9118;DHT22;4594;50.994;7.126;2024-01-27T03:47:10;2.90;55.30
9118;DHT22;4594;50.994;7.126;2024-01-27T03:49:35;2.90;55.30
9118;DHT22;4594;50.994;7.126;2024-01-27T03:52:01;2.90;55.30
9118;DHT22;4594;50.994;7.126;2024-01-27T03:54:27;2.80;55.10
9118;DHT22;4594;50.994;7.126;2024-01-27T03:56:54;2.80;55.10
9118;DHT22;4594;50.994;7.126;2024-01-27T03:59:20;3.20;55.30
9118;DHT22;4594;50.994;7.126;2024-01-27T04:01:46;2.80;55.10
9118;DHT22;4594;50.994;7.126;2024-01-27T04:04:12;2.70;55.00
9118;DHT22;4594;50.994;7.126;2024-01-27T04:06:39;2.70;55.10
9118;DHT22;4594;50.994;7.126;2024-01-27T04:09:06;2.70;55.20
9118;DHT22;4594;50.994;7.126;2024-01-27T04:11:34;2.70;55.40
9118;DHT22;4594;50.994;7.126;2024-01-27T04:14:01;2.60;55.30
9118;DHT22;4594;50.994;7.126;2024-01-27T04:16:27;2.60;55.20
9118;DHT22;4594;50.994;7.126;2024-01-27T04:18:53;2.60;55.20
9118;DHT22;4594;50.994;7.126;2024-01-27T04:21:19;2.60;55.20
9118;DHT22;4594;50.994;7.126;2024-01-27T04:23:44;2.60;55.20
9118;DHT22;4594;50.994;7.126;2024-01-27T04:26:10;2.50;55.20
9118;DHT22;4594;50.994;7.126;2024-01-27T04:28:36;2.50;55.20
9118;DHT22;4594;50.994;7.126;2024-01-27T04:31:02;2.50;55.30
9118;DHT22;4594;50.994;7.126;2024-01-27T04:33:28;2.50;55.30
9118;DHT22;4594;50.994;7.126;2024-01-27T04:35:54;2.50;55.30
9118;DHT22;4594;50.994;7.126;2024-01-27T04:38:20;2.50;55.40
9118;DHT22;4594;50.994;7.126;2024-01-27T04:40:46;2.40;55.40
9118;DHT22;4594;50.994;7.126;2024-01-27T04:43:15;2.40;55.60
9118;DHT22;4594;50.994;7.126;2024-01-27T04:45:42;2.40;55.40
9118;DHT22;4594;50.994;7.126;2024-01-27T04:48:08;2.40;55.60
9118;DHT22;4594;50.994;7.126;2024-01-27T04:50:34;2.40;55.50
9118;DHT22;4594;50.994;7.126;2024-01-27T04:53:00;2.40;55.50
9118;DHT22;4594;50.994;7.126;2024-01-27T04:55:26;2.40;55.50
9118;DHT22;4594;50.994;7.126;2024-01-27T04:57:52;2.40;55.40
9118;DHT22;4594;50.994;7.126;2024-01-27T05:00:19;2.30;55.40
9118;DHT22;4594;50.994;7.126;2024-01-27T05:02:45;2.30;55.40
9118;DHT22;4594;50.994;7.126;2024-01-27T05:05:11;2.30;55.40
9118;DHT22;4594;50.994;7.126;2024-01-27T05:07:38;2.30;55.70
9118;DHT22;4594;50.994;7.126;2024-01-27T05:10:04;2.30;55.70
9118;DHT22;4594;50.994;7.126;2024-01-27T05:12:31;2.30;55.70
9118;DHT22;4594;50.994;7.126;2024-01-27T05:14:57;2.30;55.70
9118;DHT22;4594;50.994;7.126;2024-01-27T05:17:22;2.30;55.70
9118;DHT22;4594;50.994;7.126;2024-01-27T05:19:49;2.30;55.70
9118;DHT22;4594;50.994;7.126;2024-01-27T05:22:16;2.30;55.70
9118;DHT22;4594;50.994;7.126;2024-01-27T05:24:42;2.30;55.70
9118;DHT22;4594;50.994;7.126;2024-01-27T05:27:07;2.20;55.60
9118;DHT22;4594;50.994;7.126;2024-01-27T05:29:33;2.20;55.60
9118;DHT22;4594;50.994;7.126;2024-01-27T05:31:59;2.20;55.60
9118;DHT22;4594;50.994;7.126;2024-01-27T05:34:24;2.20;55.60
9118;DHT22;4594;50.994;7.126;2024-01-27T05:36:50;2.20;55.70
9118;DHT22;4594;50.994;7.126;2024-01-27T05:39:16;2.20;55.70
9118;DHT22;4594;50.994;7.126;2024-01-27T05:41:41;2.20;55.70
9118;DHT22;4594;50.994;7.126;2024-01-27T05:44:07;2.20;55.80
9118;DHT22;4594;50.994;7.126;2024-01-27T05:46:34;2.20;55.80
9118;DHT22;4594;50.994;7.126;2024-01-27T05:49:00;2.20;55.80
9118;DHT22;4594;50.994;7.126;2024-01-27T05:51:29;2.20;55.90
9118;DHT22;4594;50.994;7.126;2024-01-27T05:53:55;2.10;55.80
9118;DHT22;4594;50.994;7.126;2024-01-27T05:56:21;2.10;55.90
9118;DHT22;4594;50.994;7.126;2024-01-27T05:58:50;2.10;55.90
9118;DHT22;4594;50.994;7.126;2024-01-27T06:01:18;2.10;55.80
9118;DHT22;4594;50.994;7.126;2024-01-27T06:03:44;2.20;55.90
9118;DHT22;4594;50.994;7.126;2024-01-27T06:06:10;2.10;55.90
9118;DHT22;4594;50.994;7.126;2024-01-27T06:08:36;2.10;55.80
9118;DHT22;4594;50.994;7.126;2024-01-27T06:11:02;2.10;55.80
9118;DHT22;4594;50.994;7.126;2024-01-27T06:13:30;2.10;55.80
9118;DHT22;4594;50.994;7.126;2024-01-27T06:15:58;2.10;55.90
9118;DHT22;4594;50.994;7.126;2024-01-27T06:18:24;2.10;55.80
9118;DHT22;4594;50.994;7.126;2024-01-27T06:20:50;2.10;55.80
9118;DHT22;4594;50.994;7.126;2024-01-27T06:23:16;2.10;55.90
9118;DHT22;4594;50.994;7.126;2024-01-27T06:25:42;2.10;56.00
9118;DHT22;4594;50.994;7.126;2024-01-27T06:28:08;2.10;56.00
9118;DHT22;4594;50.994;7.126;2024-01-27T06:30:34;2.10;56.00
9118;DHT22;4594;50.994;7.126;2024-01-27T06:33:00;2.10;56.00
9118;DHT22;4594;50.994;7.126;2024-01-27T06:35:25;2.10;56.00
9118;DHT22;4594;50.994;7.126;2024-01-27T06:37:51;2.10;56.00
9118;DHT22;4594;50.994;7.126;2024-01-27T06:40:17;2.10;55.90
9118;DHT22;4594;50.994;7.126;2024-01-27T06:42:42;2.00;55.70
9118;DHT22;4594;50.994;7.126;2024-01-27T06:45:08;2.00;55.70
9118;DHT22;4594;50.994;7.126;2024-01-27T06:47:34;2.00;55.70
9118;DHT22;4594;50.994;7.126;2024-01-27T06:50:00;2.00;55.80
9118;DHT22;4594;50.994;7.126;2024-01-27T06:52:26;2.00;56.20
9118;DHT22;4594;50.994;7.126;2024-01-27T06:54:51;2.40;56.90
9118;DHT22;4594;50.994;7.126;2024-01-27T06:57:18;2.00;57.10
9118;DHT22;4594;50.994;7.126;2024-01-27T06:59:49;2.10;57.50
9118;DHT22;4594;50.994;7.126;2024-01-27T07:02:24;2.10;57.70
9118;DHT22;4594;50.994;7.126;2024-01-27T07:04:52;2.20;57.90
9118;DHT22;4594;50.994;7.126;2024-01-27T07:07:26;2.20;58.20
9118;DHT22;4594;50.994;7.126;2024-01-27T07:09:56;2.30;58.10
9118;DHT22;4594;50.994;7.126;2024-01-27T07:12:23;2.30;58.10
9118;DHT22;4594;50.994;7.126;2024-01-27T07:14:49;2.40;58.20
9118;DHT22;4594;50.994;7.126;2024-01-27T07:17:16;2.40;58.10
9118;DHT22;4594;50.994;7.126;2024-01-27T07:19:42;2.40;58.00
9118;DHT22;4594;50.994;7.126;2024-01-27T07:22:08;2.40;57.90
9118;DHT22;4594;50.994;7.126;2024-01-27T07:24:33;2.50;58.00
9118;DHT22;4594;50.994;7.126;2024-01-27T07:27:03;2.50;58.10
9118;DHT22;4594;50.994;7.126;2024-01-27T07:29:29;2.50;58.00
9118;DHT22;4594;50.994;7.126;2024-01-27T07:31:55;2.60;58.30
9118;DHT22;4594;50.994;7.126;2024-01-27T07:34:21;2.60;58.40
9118;DHT22;4594;50.994;7.126;2024-01-27T07:36:46;2.70;58.60
9118;DHT22;4594;50.994;7.126;2024-01-27T07:39:15;2.70;58.60
9118;DHT22;4594;50.994;7.126;2024-01-27T07:41:41;2.80;58.60
9118;DHT22;4594;50.994;7.126;2024-01-27T07:44:13;2.80;58.70
9118;DHT22;4594;50.994;7.126;2024-01-27T07:46:40;2.90;58.80
9118;DHT22;4594;50.994;7.126;2024-01-27T07:49:07;2.90;59.30
9118;DHT22;4594;50.994;7.126;2024-01-27T07:51:33;3.00;60.20
9118;DHT22;4594;50.994;7.126;2024-01-27T07:54:00;3.20;61.60
9118;DHT22;4594;50.994;7.126;2024-01-27T07:56:26;3.40;63.40
9118;DHT22;4594;50.994;7.126;2024-01-27T07:58:52;3.60;64.60
9118;DHT22;4594;50.994;7.126;2024-01-27T08:01:19;3.90;66.20
9118;DHT22;4594;50.994;7.126;2024-01-27T08:03:45;4.30;67.90
9118;DHT22;4594;50.994;7.126;2024-01-27T08:06:18;4.60;69.30
9118;DHT22;4594;50.994;7.126;2024-01-27T08:08:48;6.20;71.80
9118;DHT22;4594;50.994;7.126;2024-01-27T08:11:14;5.40;71.60
9118;DHT22;4594;50.994;7.126;2024-01-27T08:13:43;5.80;72.50
9118;DHT22;4594;50.994;7.126;2024-01-27T08:16:10;6.20;73.10
9118;DHT22;4594;50.994;7.126;2024-01-27T08:18:38;6.60;73.00
9118;DHT22;4594;50.994;7.126;2024-01-27T08:21:05;6.90;72.60
9118;DHT22;4594;50.994;7.126;2024-01-27T08:23:30;7.30;72.20
9118;DHT22;4594;50.994;7.126;2024-01-27T08:25:56;7.60;71.80
9118;DHT22;4594;50.994;7.126;2024-01-27T08:28:22;7.90;71.30
9118;DHT22;4594;50.994;7.126;2024-01-27T08:30:48;8.20;70.70
9118;DHT22;4594;50.994;7.126;2024-01-27T08:33:14;8.50;70.70
9118;DHT22;4594;50.994;7.126;2024-01-27T08:35:40;8.70;70.70
9118;DHT22;4594;50.994;7.126;2024-01-27T08:38:06;9.00;71.40
9118;DHT22;4594;50.994;7.126;2024-01-27T08:40:32;9.80;72.60
9118;DHT22;4594;50.994;7.126;2024-01-27T08:42:58;9.50;72.20
9118;DHT22;4594;50.994;7.126;2024-01-27T08:45:23;10.60;71.70
9118;DHT22;4594;50.994;7.126;2024-01-27T08:47:51;10.20;70.60
9118;DHT22;4594;50.994;7.126;2024-01-27T08:50:16;10.40;70.20
9118;DHT22;4594;50.994;7.126;2024-01-27T08:52:42;10.50;69.70
9118;DHT22;4594;50.994;7.126;2024-01-27T08:55:08;11.00;69.10
9118;DHT22;4594;50.994;7.126;2024-01-27T08:57:34;11.10;68.00
9118;DHT22;4594;50.994;7.126;2024-01-27T08:59:59;11.40;67.20
9118;DHT22;4594;50.994;7.126;2024-01-27T09:02:25;11.50;66.30
9118;DHT22;4594;50.994;7.126;2024-01-27T09:04:51;11.80;66.00
9118;DHT22;4594;50.994;7.126;2024-01-27T09:07:16;11.90;65.50
9118;DHT22;4594;50.994;7.126;2024-01-27T09:09:42;12.10;65.00
9118;DHT22;4594;50.994;7.126;2024-01-27T09:12:08;12.00;63.10
9118;DHT22;4594;50.994;7.126;2024-01-27T09:14:34;12.10;62.30
9118;DHT22;4594;50.994;7.126;2024-01-27T09:17:03;12.10;61.50
9118;DHT22;4594;50.994;7.126;2024-01-27T09:19:29;12.20;58.50
9118;DHT22;4594;50.994;7.126;2024-01-27T09:21:54;12.10;59.60
9118;DHT22;4594;50.994;7.126;2024-01-27T09:24:20;12.10;59.80
9118;DHT22;4594;50.994;7.126;2024-01-27T09:26:46;12.00;60.00
9118;DHT22;4594;50.994;7.126;2024-01-27T09:29:11;12.00;59.70
9118;DHT22;4594;50.994;7.126;2024-01-27T09:31:37;11.90;59.80
9118;DHT22;4594;50.994;7.126;2024-01-27T09:34:03;12.00;59.80
9118;DHT22;4594;50.994;7.126;2024-01-27T09:36:29;12.00;60.20
9118;DHT22;4594;50.994;7.126;2024-01-27T09:38:55;11.90;60.60
9118;DHT22;4594;50.994;7.126;2024-01-27T09:41:21;11.90;61.10
9118;DHT22;4594;50.994;7.126;2024-01-27T09:43:47;12.00;60.80
9118;DHT22;4594;50.994;7.126;2024-01-27T09:46:17;12.00;61.50
9118;DHT22;4594;50.994;7.126;2024-01-27T09:48:43;12.00;60.00
9118;DHT22;4594;50.994;7.126;2024-01-27T09:51:10;12.10;62.40
9118;DHT22;4594;50.994;7.126;2024-01-27T09:53:36;12.20;63.00
9118;DHT22;4594;50.994;7.126;2024-01-27T09:56:03;12.30;63.80
9118;DHT22;4594;50.994;7.126;2024-01-27T09:58:32;12.40;65.10
9118;DHT22;4594;50.994;7.126;2024-01-27T10:00:59;12.50;64.90
9118;DHT22;4594;50.994;7.126;2024-01-27T10:03:27;12.60;67.70
9118;DHT22;4594;50.994;7.126;2024-01-27T10:05:55;12.80;68.80
9118;DHT22;4594;50.994;7.126;2024-01-27T10:08:22;13.00;68.80
9118;DHT22;4594;50.994;7.126;2024-01-27T10:10:54;13.10;68.40
9118;DHT22;4594;50.994;7.126;2024-01-27T10:13:22;13.30;65.00
9118;DHT22;4594;50.994;7.126;2024-01-27T10:16:04;13.50;69.50
9118;DHT22;4594;50.994;7.126;2024-01-27T10:18:32;13.70;64.20
9118;DHT22;4594;50.994;7.126;2024-01-27T10:20:58;13.80;70.70
9118;DHT22;4594;50.994;7.126;2024-01-27T10:23:25;14.00;70.70
9118;DHT22;4594;50.994;7.126;2024-01-27T10:25:51;14.10;70.80
9118;DHT22;4594;50.994;7.126;2024-01-27T10:28:18;14.30;69.70
9118;DHT22;4594;50.994;7.126;2024-01-27T10:30:45;14.40;68.60
9118;DHT22;4594;50.994;7.126;2024-01-27T10:33:11;14.50;68.10
9118;DHT22;4594;50.994;7.126;2024-01-27T10:35:43;14.60;65.90
9118;DHT22;4594;50.994;7.126;2024-01-27T10:38:09;14.70;62.60
9118;DHT22;4594;50.994;7.126;2024-01-27T10:40:36;14.80;66.10
9118;DHT22;4594;50.994;7.126;2024-01-27T10:43:07;14.90;66.40
9118;DHT22;4594;50.994;7.126;2024-01-27T10:45:40;15.10;64.10
9118;DHT22;4594;50.994;7.126;2024-01-27T10:48:08;15.20;58.80
9118;DHT22;4594;50.994;7.126;2024-01-27T10:50:38;15.30;61.70
9118;DHT22;4594;50.994;7.126;2024-01-27T10:53:15;15.30;59.70
9118;DHT22;4594;50.994;7.126;2024-01-27T10:55:48;15.30;56.90
9118;DHT22;4594;50.994;7.126;2024-01-27T10:58:19;15.30;56.60
9118;DHT22;4594;50.994;7.126;2024-01-27T11:00:48;15.20;54.90
9118;DHT22;4594;50.994;7.126;2024-01-27T11:03:18;15.00;53.80
9118;DHT22;4594;50.994;7.126;2024-01-27T11:05:46;14.90;52.10
9118;DHT22;4594;50.994;7.126;2024-01-27T11:08:13;14.70;51.90
9118;DHT22;4594;50.994;7.126;2024-01-27T11:10:39;14.60;52.40
9118;DHT22;4594;50.994;7.126;2024-01-27T11:13:08;14.40;52.50
9118;DHT22;4594;50.994;7.126;2024-01-27T11:15:34;14.30;51.10
9118;DHT22;4594;50.994;7.126;2024-01-27T11:18:00;14.10;51.30
9118;DHT22;4594;50.994;7.126;2024-01-27T11:20:27;13.90;51.10
9118;DHT22;4594;50.994;7.126;2024-01-27T11:22:55;13.80;51.20
9118;DHT22;4594;50.994;7.126;2024-01-27T11:25:32;13.60;50.80
9118;DHT22;4594;50.994;7.126;2024-01-27T11:27:58;13.50;51.30
9118;DHT22;4594;50.994;7.126;2024-01-27T11:30:32;13.40;51.50
9118;DHT22;4594;50.994;7.126;2024-01-27T11:33:01;13.30;49.70
9118;DHT22;4594;50.994;7.126;2024-01-27T11:35:28;13.30;51.90
9118;DHT22;4594;50.994;7.126;2024-01-27T11:37:55;13.10;52.10
9118;DHT22;4594;50.994;7.126;2024-01-27T11:40:20;13.00;52.30
9118;DHT22;4594;50.994;7.126;2024-01-27T11:43:01;13.00;52.60
9118;DHT22;4594;50.994;7.126;2024-01-27T11:45:28;13.00;49.70
9118;DHT22;4594;50.994;7.126;2024-01-27T11:47:57;12.80;52.70
9118;DHT22;4594;50.994;7.126;2024-01-27T11:50:25;12.70;52.70
9118;DHT22;4594;50.994;7.126;2024-01-27T11:52:51;12.70;52.50
9118;DHT22;4594;50.994;7.126;2024-01-27T11:55:17;12.60;52.50
9118;DHT22;4594;50.994;7.126;2024-01-27T11:57:44;12.50;52.40
9118;DHT22;4594;50.994;7.126;2024-01-27T12:00:11;12.40;52.30
9118;DHT22;4594;50.994;7.126;2024-01-27T12:02:40;12.30;52.40
9118;DHT22;4594;50.994;7.126;2024-01-27T12:05:07;12.30;51.90
9118;DHT22;4594;50.994;7.126;2024-01-27T12:07:34;12.20;53.10
9118;DHT22;4594;50.994;7.126;2024-01-27T12:09:59;12.30;53.50
9118;DHT22;4594;50.994;7.126;2024-01-27T12:12:25;12.10;53.70
9118;DHT22;4594;50.994;7.126;2024-01-27T12:14:51;12.00;53.80
9118;DHT22;4594;50.994;7.126;2024-01-27T12:17:18;12.10;54.20
9118;DHT22;4594;50.994;7.126;2024-01-27T12:19:52;12.00;54.20
9118;DHT22;4594;50.994;7.126;2024-01-27T12:22:29;11.90;52.30
9118;DHT22;4594;50.994;7.126;2024-01-27T12:25:13;11.90;52.40
9118;DHT22;4594;50.994;7.126;2024-01-27T12:27:40;11.80;51.00
9118;DHT22;4594;50.994;7.126;2024-01-27T12:30:06;11.80;54.30
9118;DHT22;4594;50.994;7.126;2024-01-27T12:32:33;11.80;54.30
9118;DHT22;4594;50.994;7.126;2024-01-27T12:35:04;12.00;54.50
9118;DHT22;4594;50.994;7.126;2024-01-27T12:37:34;11.60;54.30
9118;DHT22;4594;50.994;7.126;2024-01-27T12:40:00;11.50;54.10
9118;DHT22;4594;50.994;7.126;2024-01-27T12:42:26;11.80;54.70
9118;DHT22;4594;50.994;7.126;2024-01-27T12:44:52;11.50;54.50
9118;DHT22;4594;50.994;7.126;2024-01-27T12:47:18;11.50;54.40
9118;DHT22;4594;50.994;7.126;2024-01-27T12:49:45;11.50;54.20
9118;DHT22;4594;50.994;7.126;2024-01-27T12:52:11;11.40;54.20
9118;DHT22;4594;50.994;7.126;2024-01-27T12:54:37;11.40;54.50
9118;DHT22;4594;50.994;7.126;2024-01-27T12:57:03;11.30;54.60
9118;DHT22;4594;50.994;7.126;2024-01-27T12:59:28;11.30;54.70
9118;DHT22;4594;50.994;7.126;2024-01-27T13:01:54;11.40;54.90
9118;DHT22;4594;50.994;7.126;2024-01-27T13:04:20;11.20;54.70
9118;DHT22;4594;50.994;7.126;2024-01-27T13:06:46;11.20;54.70
9118;DHT22;4594;50.994;7.126;2024-01-27T13:09:12;11.40;55.00
9118;DHT22;4594;50.994;7.126;2024-01-27T13:11:39;11.20;54.90
9118;DHT22;4594;50.994;7.126;2024-01-27T13:14:05;11.10;54.90
9118;DHT22;4594;50.994;7.126;2024-01-27T13:16:32;11.10;54.90
9118;DHT22;4594;50.994;7.126;2024-01-27T13:18:57;11.10;54.90
9118;DHT22;4594;50.994;7.126;2024-01-27T13:21:23;11.10;54.90
9118;DHT22;4594;50.994;7.126;2024-01-27T13:23:49;11.70;55.50
9118;DHT22;4594;50.994;7.126;2024-01-27T13:26:17;11.20;55.10
9118;DHT22;4594;50.994;7.126;2024-01-27T13:28:43;11.10;54.80
9118;DHT22;4594;50.994;7.126;2024-01-27T13:31:08;11.00;54.90
9118;DHT22;4594;50.994;7.126;2024-01-27T13:33:34;11.00;54.90
9118;DHT22;4594;50.994;7.126;2024-01-27T13:36:00;11.00;54.80
9118;DHT22;4594;50.994;7.126;2024-01-27T13:38:26;10.90;54.80
9118;DHT22;4594;50.994;7.126;2024-01-27T13:40:52;10.90;54.70
9118;DHT22;4594;50.994;7.126;2024-01-27T13:43:18;11.00;54.80
9118;DHT22;4594;50.994;7.126;2024-01-27T13:45:44;10.90;54.80
9118;DHT22;4594;50.994;7.126;2024-01-27T13:48:11;10.80;54.50
9118;DHT22;4594;50.994;7.126;2024-01-27T13:50:37;10.80;54.50
9118;DHT22;4594;50.994;7.126;2024-01-27T13:53:03;10.80;54.40
9118;DHT22;4594;50.994;7.126;2024-01-27T13:55:30;10.80;54.50
9118;DHT22;4594;50.994;7.126;2024-01-27T13:57:56;10.80;54.80
9118;DHT22;4594;50.994;7.126;2024-01-27T14:00:22;10.70;54.80
9118;DHT22;4594;50.994;7.126;2024-01-27T14:02:48;10.70;54.70
9118;DHT22;4594;50.994;7.126;2024-01-27T14:05:14;10.80;54.90
9118;DHT22;4594;50.994;7.126;2024-01-27T14:07:39;10.60;54.60
9118;DHT22;4594;50.994;7.126;2024-01-27T14:10:05;10.60;54.70
9118;DHT22;4594;50.994;7.126;2024-01-27T14:12:31;10.60;54.60
9118;DHT22;4594;50.994;7.126;2024-01-27T14:15:06;10.50;54.50
9118;DHT22;4594;50.994;7.126;2024-01-27T14:17:34;10.50;52.30
9118;DHT22;4594;50.994;7.126;2024-01-27T14:20:04;10.70;54.70
9118;DHT22;4594;50.994;7.126;2024-01-27T14:22:30;10.50;54.50
9118;DHT22;4594;50.994;7.126;2024-01-27T14:24:56;10.40;54.30
9118;DHT22;4594;50.994;7.126;2024-01-27T14:27:22;10.50;54.30
9118;DHT22;4594;50.994;7.126;2024-01-27T14:29:55;11.10;54.90
9118;DHT22;4594;50.994;7.126;2024-01-27T14:32:22;10.40;53.40
9118;DHT22;4594;50.994;7.126;2024-01-27T14:34:48;10.40;54.40
9118;DHT22;4594;50.994;7.126;2024-01-27T14:37:15;10.30;54.20
9118;DHT22;4594;50.994;7.126;2024-01-27T14:39:47;10.30;54.10
9118;DHT22;4594;50.994;7.126;2024-01-27T14:42:13;10.30;54.10
9118;DHT22;4594;50.994;7.126;2024-01-27T14:44:40;10.30;54.30
9118;DHT22;4594;50.994;7.126;2024-01-27T14:47:08;10.30;54.20
9118;DHT22;4594;50.994;7.126;2024-01-27T14:49:34;10.20;53.90
9118;DHT22;4594;50.994;7.126;2024-01-27T14:52:01;10.20;54.20
9118;DHT22;4594;50.994;7.126;2024-01-27T14:54:27;10.20;54.20
9118;DHT22;4594;50.994;7.126;2024-01-27T14:56:53;10.20;54.00
9118;DHT22;4594;50.994;7.126;2024-01-27T14:59:19;10.30;54.20
9118;DHT22;4594;50.994;7.126;2024-01-27T15:01:44;10.30;54.20
9118;DHT22;4594;50.994;7.126;2024-01-27T15:04:12;11.10;54.90
9118;DHT22;4594;50.994;7.126;2024-01-27T15:06:38;10.10;54.10
9118;DHT22;4594;50.994;7.126;2024-01-27T15:09:04;10.10;53.90
9118;DHT22;4594;50.994;7.126;2024-01-27T15:11:30;10.10;54.10
9118;DHT22;4594;50.994;7.126;2024-01-27T15:13:55;10.10;54.20
9118;DHT22;4594;50.994;7.126;2024-01-27T15:16:22;10.10;54.00
9118;DHT22;4594;50.994;7.126;2024-01-27T15:18:48;10.10;54.00
9118;DHT22;4594;50.994;7.126;2024-01-27T15:21:15;10.10;54.20
9118;DHT22;4594;50.994;7.126;2024-01-27T15:23:42;11.40;55.10
9118;DHT22;4594;50.994;7.126;2024-01-27T15:26:08;10.20;54.00
9118;DHT22;4594;50.994;7.126;2024-01-27T15:28:36;10.00;53.90
9118;DHT22;4594;50.994;7.126;2024-01-27T15:31:01;10.00;53.90
9118;DHT22;4594;50.994;7.126;2024-01-27T15:33:27;9.90;54.70
9118;DHT22;4594;50.994;7.126;2024-01-27T15:35:53;9.90;54.60
9118;DHT22;4594;50.994;7.126;2024-01-27T15:38:19;10.00;53.80
9118;DHT22;4594;50.994;7.126;2024-01-27T15:40:44;10.80;54.40
9118;DHT22;4594;50.994;7.126;2024-01-27T15:43:10;10.50;54.00
9118;DHT22;4594;50.994;7.126;2024-01-27T15:45:36;9.80;54.40
9118;DHT22;4594;50.994;7.126;2024-01-27T15:48:02;9.80;54.30
9118;DHT22;4594;50.994;7.126;2024-01-27T15:50:27;9.80;54.30
9118;DHT22;4594;50.994;7.126;2024-01-27T15:52:57;9.70;54.20
9118;DHT22;4594;50.994;7.126;2024-01-27T15:55:23;9.70;53.20
9118;DHT22;4594;50.994;7.126;2024-01-27T15:57:49;9.60;53.90
9118;DHT22;4594;50.994;7.126;2024-01-27T16:00:16;9.60;53.80
9118;DHT22;4594;50.994;7.126;2024-01-27T16:02:42;9.50;53.40
9118;DHT22;4594;50.994;7.126;2024-01-27T16:05:08;10.30;53.40
9118;DHT22;4594;50.994;7.126;2024-01-27T16:07:34;9.50;53.40
9118;DHT22;4594;50.994;7.126;2024-01-27T16:10:00;9.30;53.30